sensor_id;sensor_type;location;lat;lon;timestamp;P1;durP1;ratioP1;P2;durP2;ratioP2
19691;SDS011;42748;50.016;19.890;2024-03-06T00:00:40;88.33;;;35.17;;
19691;SDS011;42748;50.016;19.890;2024-03-06T00:03:08;93.50;;;35.07;;
19691;SDS011;42748;50.016;19.890;2024-03-06T00:05:35;97.60;;;37.97;;
19691;SDS011;42748;50.016;19.890;2024-03-06T00:08:03;95.23;;;35.90;;
19691;SDS011;42748;50.016;19.890;2024-03-06T00:10:31;98.60;;;37.00;;
19691;SDS011;42748;50.016;19.890;2024-03-06T00:12:59;96.43;;;37.23;;
19691;SDS011;42748;50.016;19.890;2024-03-06T00:15:26;101.97;;;37.50;;
19691;SDS011;42748;50.016;19.890;2024-03-06T00:17:54;92.90;;;36.63;;
19691;SDS011;42748;50.016;19.890;2024-03-06T00:20:22;93.73;;;36.30;;
19691;SDS011;42748;50.016;19.890;2024-03-06T00:22:49;92.47;;;36.77;;
19691;SDS011;42748;50.016;19.890;2024-03-06T00:25:17;98.07;;;37.17;;
19691;SDS011;42748;50.016;19.890;2024-03-06T00:27:45;100.10;;;37.07;;
19691;SDS011;42748;50.016;19.890;2024-03-06T00:30:12;99.37;;;37.73;;
19691;SDS011;42748;50.016;19.890;2024-03-06T00:32:40;112.13;;;41.47;;
19691;SDS011;42748;50.016;19.890;2024-03-06T00:35:08;101.43;;;38.13;;
19691;SDS011;42748;50.016;19.890;2024-03-06T00:37:35;101.13;;;37.60;;
19691;SDS011;42748;50.016;19.890;2024-03-06T00:40:03;104.60;;;37.57;;
19691;SDS011;42748;50.016;19.890;2024-03-06T00:42:31;92.60;;;35.70;;
19691;SDS011;42748;50.016;19.890;2024-03-06T00:45:00;90.80;;;35.07;;
19691;SDS011;42748;50.016;19.890;2024-03-06T00:47:28;100.83;;;36.03;;
19691;SDS011;42748;50.016;19.890;2024-03-06T00:49:56;91.43;;;35.37;;
19691;SDS011;42748;50.016;19.890;2024-03-06T00:52:24;98.50;;;35.00;;
19691;SDS011;42748;50.016;19.890;2024-03-06T00:54:51;94.43;;;35.97;;
19691;SDS011;42748;50.016;19.890;2024-03-06T00:57:19;93.90;;;35.03;;
19691;SDS011;42748;50.016;19.890;2024-03-06T00:59:47;94.80;;;35.77;;
19691;SDS011;42748;50.016;19.890;2024-03-06T01:02:14;98.87;;;36.00;;
19691;SDS011;42748;50.016;19.890;2024-03-06T01:04:43;94.60;;;36.43;;
19691;SDS011;42748;50.016;19.890;2024-03-06T01:07:10;101.33;;;37.70;;
19691;SDS011;42748;50.016;19.890;2024-03-06T01:09:38;96.53;;;35.83;;
19691;SDS011;42748;50.016;19.890;2024-03-06T01:12:07;92.13;;;34.90;;
19691;SDS011;42748;50.016;19.890;2024-03-06T01:14:35;96.23;;;36.33;;
19691;SDS011;42748;50.016;19.890;2024-03-06T01:17:06;89.43;;;35.80;;
19691;SDS011;42748;50.016;19.890;2024-03-06T01:19:34;98.23;;;36.93;;
19691;SDS011;42748;50.016;19.890;2024-03-06T01:22:02;95.87;;;36.77;;
19691;SDS011;42748;50.016;19.890;2024-03-06T01:24:30;92.87;;;34.90;;
19691;SDS011;42748;50.016;19.890;2024-03-06T01:26:57;95.37;;;36.10;;
19691;SDS011;42748;50.016;19.890;2024-03-06T01:29:29;96.83;;;36.57;;
19691;SDS011;42748;50.016;19.890;2024-03-06T01:31:57;91.57;;;35.97;;
19691;SDS011;42748;50.016;19.890;2024-03-06T01:34:25;93.63;;;36.37;;
19691;SDS011;42748;50.016;19.890;2024-03-06T01:36:53;99.73;;;37.40;;
19691;SDS011;42748;50.016;19.890;2024-03-06T01:39:21;91.93;;;34.63;;
19691;SDS011;42748;50.016;19.890;2024-03-06T01:41:50;87.37;;;34.33;;
19691;SDS011;42748;50.016;19.890;2024-03-06T01:44:18;90.03;;;35.20;;
19691;SDS011;42748;50.016;19.890;2024-03-06T01:46:46;89.67;;;34.37;;
19691;SDS011;42748;50.016;19.890;2024-03-06T01:49:14;92.03;;;34.60;;
19691;SDS011;42748;50.016;19.890;2024-03-06T01:51:57;91.70;;;34.63;;
19691;SDS011;42748;50.016;19.890;2024-03-06T01:54:26;88.17;;;35.03;;
19691;SDS011;42748;50.016;19.890;2024-03-06T01:56:54;90.07;;;35.47;;
19691;SDS011;42748;50.016;19.890;2024-03-06T01:59:22;91.80;;;36.03;;
19691;SDS011;42748;50.016;19.890;2024-03-06T02:02:02;89.47;;;34.23;;
19691;SDS011;42748;50.016;19.890;2024-03-06T02:04:31;93.47;;;35.00;;
19691;SDS011;42748;50.016;19.890;2024-03-06T02:06:59;97.57;;;35.13;;
19691;SDS011;42748;50.016;19.890;2024-03-06T02:09:27;92.87;;;34.30;;
19691;SDS011;42748;50.016;19.890;2024-03-06T02:11:54;88.73;;;34.47;;
19691;SDS011;42748;50.016;19.890;2024-03-06T02:14:22;102.00;;;36.77;;
19691;SDS011;42748;50.016;19.890;2024-03-06T02:16:50;102.87;;;38.37;;
19691;SDS011;42748;50.016;19.890;2024-03-06T02:19:18;101.20;;;37.40;;
19691;SDS011;42748;50.016;19.890;2024-03-06T02:21:46;99.47;;;37.20;;
19691;SDS011;42748;50.016;19.890;2024-03-06T02:24:13;98.53;;;36.90;;
19691;SDS011;42748;50.016;19.890;2024-03-06T02:26:41;102.17;;;37.17;;
19691;SDS011;42748;50.016;19.890;2024-03-06T02:29:09;91.37;;;35.17;;
19691;SDS011;42748;50.016;19.890;2024-03-06T02:31:37;95.53;;;35.97;;
19691;SDS011;42748;50.016;19.890;2024-03-06T02:34:09;98.63;;;36.13;;
19691;SDS011;42748;50.016;19.890;2024-03-06T02:36:36;88.00;;;33.33;;
19691;SDS011;42748;50.016;19.890;2024-03-06T02:39:04;94.53;;;34.27;;
19691;SDS011;42748;50.016;19.890;2024-03-06T02:41:36;105.13;;;36.27;;
19691;SDS011;42748;50.016;19.890;2024-03-06T02:44:03;95.87;;;34.87;;
19691;SDS011;42748;50.016;19.890;2024-03-06T02:46:31;95.27;;;34.83;;
19691;SDS011;42748;50.016;19.890;2024-03-06T02:48:59;112.40;;;37.03;;
19691;SDS011;42748;50.016;19.890;2024-03-06T02:51:27;108.27;;;36.27;;
19691;SDS011;42748;50.016;19.890;2024-03-06T02:53:55;100.47;;;35.03;;
19691;SDS011;42748;50.016;19.890;2024-03-06T02:56:22;105.63;;;34.80;;
19691;SDS011;42748;50.016;19.890;2024-03-06T02:58:50;98.20;;;34.17;;
19691;SDS011;42748;50.016;19.890;2024-03-06T03:01:18;94.23;;;34.27;;
19691;SDS011;42748;50.016;19.890;2024-03-06T03:03:46;91.70;;;33.67;;
19691;SDS011;42748;50.016;19.890;2024-03-06T03:06:13;93.10;;;33.17;;
19691;SDS011;42748;50.016;19.890;2024-03-06T03:08:41;110.93;;;34.80;;
19691;SDS011;42748;50.016;19.890;2024-03-06T03:11:09;95.90;;;34.93;;
19691;SDS011;42748;50.016;19.890;2024-03-06T03:13:37;105.50;;;34.93;;
19691;SDS011;42748;50.016;19.890;2024-03-06T03:16:04;102.33;;;34.13;;
19691;SDS011;42748;50.016;19.890;2024-03-06T03:18:32;97.60;;;33.67;;
19691;SDS011;42748;50.016;19.890;2024-03-06T03:21:00;106.70;;;35.33;;
19691;SDS011;42748;50.016;19.890;2024-03-06T03:23:28;93.97;;;33.60;;
19691;SDS011;42748;50.016;19.890;2024-03-06T03:25:56;97.00;;;34.53;;
19691;SDS011;42748;50.016;19.890;2024-03-06T03:28:23;106.90;;;35.33;;
19691;SDS011;42748;50.016;19.890;2024-03-06T03:30:51;116.87;;;35.17;;
19691;SDS011;42748;50.016;19.890;2024-03-06T03:33:19;117.67;;;35.37;;
19691;SDS011;42748;50.016;19.890;2024-03-06T03:35:46;104.90;;;34.80;;
19691;SDS011;42748;50.016;19.890;2024-03-06T03:38:14;107.67;;;34.23;;
19691;SDS011;42748;50.016;19.890;2024-03-06T03:40:43;134.10;;;36.93;;
19691;SDS011;42748;50.016;19.890;2024-03-06T03:43:11;110.57;;;34.80;;
19691;SDS011;42748;50.016;19.890;2024-03-06T03:45:38;114.30;;;36.50;;
19691;SDS011;42748;50.016;19.890;2024-03-06T03:48:06;104.67;;;33.73;;
19691;SDS011;42748;50.016;19.890;2024-03-06T03:50:34;110.87;;;34.83;;
19691;SDS011;42748;50.016;19.890;2024-03-06T03:53:02;117.40;;;36.63;;
19691;SDS011;42748;50.016;19.890;2024-03-06T03:55:30;109.37;;;35.07;;
19691;SDS011;42748;50.016;19.890;2024-03-06T03:57:58;109.73;;;35.33;;
19691;SDS011;42748;50.016;19.890;2024-03-06T04:00:26;100.87;;;34.10;;
19691;SDS011;42748;50.016;19.890;2024-03-06T04:02:53;94.83;;;32.80;;
19691;SDS011;42748;50.016;19.890;2024-03-06T04:05:22;104.90;;;33.23;;
19691;SDS011;42748;50.016;19.890;2024-03-06T04:07:50;100.97;;;34.07;;
19691;SDS011;42748;50.016;19.890;2024-03-06T04:10:17;96.37;;;32.57;;
19691;SDS011;42748;50.016;19.890;2024-03-06T04:12:45;95.67;;;31.57;;
19691;SDS011;42748;50.016;19.890;2024-03-06T04:15:13;88.63;;;31.30;;
19691;SDS011;42748;50.016;19.890;2024-03-06T04:17:40;86.43;;;30.73;;
19691;SDS011;42748;50.016;19.890;2024-03-06T04:20:08;91.63;;;31.07;;
19691;SDS011;42748;50.016;19.890;2024-03-06T04:22:38;86.80;;;30.13;;
19691;SDS011;42748;50.016;19.890;2024-03-06T04:25:06;97.07;;;30.73;;
19691;SDS011;42748;50.016;19.890;2024-03-06T04:27:34;108.03;;;31.20;;
19691;SDS011;42748;50.016;19.890;2024-03-06T04:30:02;114.23;;;32.27;;
19691;SDS011;42748;50.016;19.890;2024-03-06T04:32:30;101.87;;;30.77;;
19691;SDS011;42748;50.016;19.890;2024-03-06T04:34:58;216.77;;;34.40;;
19691;SDS011;42748;50.016;19.890;2024-03-06T04:37:27;106.40;;;33.10;;
19691;SDS011;42748;50.016;19.890;2024-03-06T04:39:56;104.10;;;32.10;;
19691;SDS011;42748;50.016;19.890;2024-03-06T04:42:24;102.73;;;32.57;;
19691;SDS011;42748;50.016;19.890;2024-03-06T04:44:51;114.30;;;33.30;;
19691;SDS011;42748;50.016;19.890;2024-03-06T04:47:19;98.47;;;32.17;;
19691;SDS011;42748;50.016;19.890;2024-03-06T04:49:47;108.80;;;31.83;;
19691;SDS011;42748;50.016;19.890;2024-03-06T04:52:17;105.97;;;31.93;;
19691;SDS011;42748;50.016;19.890;2024-03-06T04:54:44;100.13;;;31.57;;
19691;SDS011;42748;50.016;19.890;2024-03-06T04:57:12;93.40;;;31.03;;
19691;SDS011;42748;50.016;19.890;2024-03-06T04:59:40;102.33;;;31.33;;
19691;SDS011;42748;50.016;19.890;2024-03-06T05:02:08;97.17;;;29.77;;
19691;SDS011;42748;50.016;19.890;2024-03-06T05:04:35;86.40;;;28.90;;
19691;SDS011;42748;50.016;19.890;2024-03-06T05:07:20;87.33;;;29.97;;
19691;SDS011;42748;50.016;19.890;2024-03-06T05:10:06;85.20;;;29.07;;
19691;SDS011;42748;50.016;19.890;2024-03-06T05:12:51;81.80;;;29.10;;
19691;SDS011;42748;50.016;19.890;2024-03-06T05:15:36;80.43;;;28.63;;
19691;SDS011;42748;50.016;19.890;2024-03-06T05:18:22;82.57;;;28.93;;
19691;SDS011;42748;50.016;19.890;2024-03-06T05:21:07;77.90;;;28.20;;
19691;SDS011;42748;50.016;19.890;2024-03-06T05:23:52;83.37;;;29.07;;
19691;SDS011;42748;50.016;19.890;2024-03-06T05:26:38;74.63;;;27.87;;
19691;SDS011;42748;50.016;19.890;2024-03-06T05:29:23;82.87;;;27.70;;
19691;SDS011;42748;50.016;19.890;2024-03-06T05:32:08;78.77;;;27.87;;
19691;SDS011;42748;50.016;19.890;2024-03-06T05:34:53;84.13;;;28.07;;
19691;SDS011;42748;50.016;19.890;2024-03-06T05:37:39;80.60;;;27.97;;
19691;SDS011;42748;50.016;19.890;2024-03-06T05:40:23;87.37;;;29.40;;
19691;SDS011;42748;50.016;19.890;2024-03-06T05:43:09;87.87;;;30.30;;
19691;SDS011;42748;50.016;19.890;2024-03-06T05:45:53;86.03;;;29.17;;
19691;SDS011;42748;50.016;19.890;2024-03-06T05:48:39;88.60;;;30.20;;
19691;SDS011;42748;50.016;19.890;2024-03-06T05:51:24;86.50;;;30.90;;
19691;SDS011;42748;50.016;19.890;2024-03-06T05:54:10;88.87;;;30.47;;
19691;SDS011;42748;50.016;19.890;2024-03-06T05:56:55;93.63;;;30.50;;
19691;SDS011;42748;50.016;19.890;2024-03-06T05:59:40;94.53;;;29.23;;
19691;SDS011;42748;50.016;19.890;2024-03-06T06:02:07;91.73;;;30.77;;
19691;SDS011;42748;50.016;19.890;2024-03-06T06:04:35;95.03;;;31.30;;
19691;SDS011;42748;50.016;19.890;2024-03-06T06:07:17;204.60;;;32.97;;
19691;SDS011;42748;50.016;19.890;2024-03-06T06:09:45;127.70;;;31.87;;
19691;SDS011;42748;50.016;19.890;2024-03-06T06:12:14;161.87;;;33.60;;
19691;SDS011;42748;50.016;19.890;2024-03-06T06:14:42;117.93;;;33.33;;
19691;SDS011;42748;50.016;19.890;2024-03-06T06:17:11;367.50;;;35.97;;
19691;SDS011;42748;50.016;19.890;2024-03-06T06:19:42;238.50;;;35.00;;
19691;SDS011;42748;50.016;19.890;2024-03-06T06:22:10;415.40;;;36.87;;
19691;SDS011;42748;50.016;19.890;2024-03-06T06:24:39;473.67;;;38.63;;
19691;SDS011;42748;50.016;19.890;2024-03-06T06:27:13;432.87;;;37.43;;
19691;SDS011;42748;50.016;19.890;2024-03-06T06:29:40;169.00;;;32.50;;
19691;SDS011;42748;50.016;19.890;2024-03-06T06:32:08;495.47;;;39.23;;
19691;SDS011;42748;50.016;19.890;2024-03-06T06:34:36;340.80;;;36.07;;
19691;SDS011;42748;50.016;19.890;2024-03-06T06:37:04;170.40;;;31.27;;
19691;SDS011;42748;50.016;19.890;2024-03-06T06:39:31;132.43;;;31.23;;
19691;SDS011;42748;50.016;19.890;2024-03-06T06:42:01;360.73;;;39.23;;
19691;SDS011;42748;50.016;19.890;2024-03-06T06:44:29;171.20;;;32.67;;
19691;SDS011;42748;50.016;19.890;2024-03-06T06:46:58;354.87;;;39.30;;
19691;SDS011;42748;50.016;19.890;2024-03-06T06:49:25;185.77;;;31.37;;
19691;SDS011;42748;50.016;19.890;2024-03-06T06:51:53;126.80;;;29.00;;
19691;SDS011;42748;50.016;19.890;2024-03-06T06:54:21;145.30;;;28.90;;
19691;SDS011;42748;50.016;19.890;2024-03-06T06:56:49;234.60;;;32.37;;
19691;SDS011;42748;50.016;19.890;2024-03-06T06:59:16;379.53;;;36.07;;
19691;SDS011;42748;50.016;19.890;2024-03-06T07:01:44;212.20;;;31.80;;
19691;SDS011;42748;50.016;19.890;2024-03-06T07:04:14;203.47;;;32.17;;
19691;SDS011;42748;50.016;19.890;2024-03-06T07:06:46;160.80;;;31.40;;
19691;SDS011;42748;50.016;19.890;2024-03-06T07:09:14;160.17;;;30.63;;
19691;SDS011;42748;50.016;19.890;2024-03-06T07:11:42;145.47;;;31.90;;
19691;SDS011;42748;50.016;19.890;2024-03-06T07:14:14;219.97;;;31.73;;
19691;SDS011;42748;50.016;19.890;2024-03-06T07:16:42;147.30;;;31.13;;
19691;SDS011;42748;50.016;19.890;2024-03-06T07:19:10;206.63;;;33.63;;
19691;SDS011;42748;50.016;19.890;2024-03-06T07:21:39;136.57;;;31.43;;
19691;SDS011;42748;50.016;19.890;2024-03-06T07:24:06;152.40;;;33.37;;
19691;SDS011;42748;50.016;19.890;2024-03-06T07:26:35;120.37;;;30.77;;
19691;SDS011;42748;50.016;19.890;2024-03-06T07:29:03;135.43;;;32.07;;
19691;SDS011;42748;50.016;19.890;2024-03-06T07:31:30;123.33;;;31.13;;
19691;SDS011;42748;50.016;19.890;2024-03-06T07:33:59;134.33;;;32.27;;
19691;SDS011;42748;50.016;19.890;2024-03-06T07:36:26;116.60;;;31.70;;
19691;SDS011;42748;50.016;19.890;2024-03-06T07:38:54;129.10;;;31.03;;
19691;SDS011;42748;50.016;19.890;2024-03-06T07:41:21;108.27;;;30.00;;
19691;SDS011;42748;50.016;19.890;2024-03-06T07:43:51;111.43;;;32.53;;
19691;SDS011;42748;50.016;19.890;2024-03-06T07:46:18;106.00;;;31.57;;
19691;SDS011;42748;50.016;19.890;2024-03-06T07:48:46;106.60;;;31.13;;
19691;SDS011;42748;50.016;19.890;2024-03-06T07:51:14;99.87;;;30.83;;
19691;SDS011;42748;50.016;19.890;2024-03-06T07:53:41;95.00;;;30.57;;
19691;SDS011;42748;50.016;19.890;2024-03-06T07:56:10;98.17;;;30.57;;
19691;SDS011;42748;50.016;19.890;2024-03-06T07:58:38;100.87;;;31.33;;
19691;SDS011;42748;50.016;19.890;2024-03-06T08:01:06;99.67;;;31.33;;
19691;SDS011;42748;50.016;19.890;2024-03-06T08:03:34;98.97;;;30.90;;
19691;SDS011;42748;50.016;19.890;2024-03-06T08:06:05;101.47;;;31.03;;
19691;SDS011;42748;50.016;19.890;2024-03-06T08:08:33;99.30;;;31.17;;
19691;SDS011;42748;50.016;19.890;2024-03-06T08:11:01;99.27;;;31.70;;
19691;SDS011;42748;50.016;19.890;2024-03-06T08:13:29;95.47;;;30.93;;
19691;SDS011;42748;50.016;19.890;2024-03-06T08:15:56;98.70;;;30.97;;
19691;SDS011;42748;50.016;19.890;2024-03-06T08:18:24;99.60;;;31.27;;
19691;SDS011;42748;50.016;19.890;2024-03-06T08:20:52;92.37;;;31.53;;
19691;SDS011;42748;50.016;19.890;2024-03-06T08:23:20;93.57;;;31.30;;
19691;SDS011;42748;50.016;19.890;2024-03-06T08:25:50;95.43;;;31.60;;
19691;SDS011;42748;50.016;19.890;2024-03-06T08:28:19;97.80;;;32.23;;
19691;SDS011;42748;50.016;19.890;2024-03-06T08:30:47;88.63;;;31.40;;
19691;SDS011;42748;50.016;19.890;2024-03-06T08:33:15;91.57;;;32.10;;
19691;SDS011;42748;50.016;19.890;2024-03-06T08:35:44;97.23;;;33.50;;
19691;SDS011;42748;50.016;19.890;2024-03-06T08:38:12;95.50;;;32.70;;
19691;SDS011;42748;50.016;19.890;2024-03-06T08:40:40;103.00;;;33.70;;
19691;SDS011;42748;50.016;19.890;2024-03-06T08:43:12;99.27;;;33.43;;
19691;SDS011;42748;50.016;19.890;2024-03-06T08:45:42;85.13;;;30.83;;
19691;SDS011;42748;50.016;19.890;2024-03-06T08:48:10;90.33;;;32.30;;
19691;SDS011;42748;50.016;19.890;2024-03-06T08:50:38;89.43;;;32.80;;
19691;SDS011;42748;50.016;19.890;2024-03-06T08:53:06;85.93;;;30.97;;
19691;SDS011;42748;50.016;19.890;2024-03-06T08:55:36;83.37;;;29.93;;
19691;SDS011;42748;50.016;19.890;2024-03-06T08:58:05;75.90;;;28.90;;
19691;SDS011;42748;50.016;19.890;2024-03-06T09:00:32;76.97;;;28.80;;
19691;SDS011;42748;50.016;19.890;2024-03-06T09:03:00;68.23;;;26.43;;
19691;SDS011;42748;50.016;19.890;2024-03-06T09:05:29;66.20;;;27.60;;
19691;SDS011;42748;50.016;19.890;2024-03-06T09:07:57;76.17;;;29.57;;
19691;SDS011;42748;50.016;19.890;2024-03-06T09:10:28;68.77;;;28.33;;
19691;SDS011;42748;50.016;19.890;2024-03-06T09:12:56;74.10;;;29.13;;
19691;SDS011;42748;50.016;19.890;2024-03-06T09:15:24;70.33;;;29.17;;
19691;SDS011;42748;50.016;19.890;2024-03-06T09:17:52;73.27;;;30.20;;
19691;SDS011;42748;50.016;19.890;2024-03-06T09:20:20;76.47;;;29.60;;
19691;SDS011;42748;50.016;19.890;2024-03-06T09:22:51;76.03;;;29.60;;
19691;SDS011;42748;50.016;19.890;2024-03-06T09:25:20;82.77;;;31.00;;
19691;SDS011;42748;50.016;19.890;2024-03-06T09:27:51;83.23;;;32.37;;
19691;SDS011;42748;50.016;19.890;2024-03-06T09:30:18;84.37;;;31.07;;
19691;SDS011;42748;50.016;19.890;2024-03-06T09:32:46;83.33;;;31.30;;
19691;SDS011;42748;50.016;19.890;2024-03-06T09:35:14;81.70;;;31.30;;
19691;SDS011;42748;50.016;19.890;2024-03-06T09:37:44;80.17;;;30.33;;
19691;SDS011;42748;50.016;19.890;2024-03-06T09:40:19;87.87;;;33.17;;
19691;SDS011;42748;50.016;19.890;2024-03-06T09:42:49;81.50;;;30.87;;
19691;SDS011;42748;50.016;19.890;2024-03-06T09:45:17;79.73;;;31.67;;
19691;SDS011;42748;50.016;19.890;2024-03-06T09:47:47;80.07;;;30.93;;
19691;SDS011;42748;50.016;19.890;2024-03-06T09:50:15;81.37;;;30.87;;
19691;SDS011;42748;50.016;19.890;2024-03-06T09:52:49;80.10;;;30.23;;
19691;SDS011;42748;50.016;19.890;2024-03-06T09:55:18;83.03;;;31.00;;
19691;SDS011;42748;50.016;19.890;2024-03-06T09:57:46;78.53;;;30.93;;
19691;SDS011;42748;50.016;19.890;2024-03-06T10:00:14;79.30;;;31.07;;
19691;SDS011;42748;50.016;19.890;2024-03-06T10:02:51;78.27;;;31.13;;
19691;SDS011;42748;50.016;19.890;2024-03-06T10:05:22;78.53;;;30.80;;
19691;SDS011;42748;50.016;19.890;2024-03-06T10:07:50;76.80;;;31.17;;
19691;SDS011;42748;50.016;19.890;2024-03-06T10:10:21;77.13;;;29.90;;
19691;SDS011;42748;50.016;19.890;2024-03-06T10:12:50;81.40;;;30.53;;
19691;SDS011;42748;50.016;19.890;2024-03-06T10:15:18;81.07;;;31.13;;
19691;SDS011;42748;50.016;19.890;2024-03-06T10:17:46;80.67;;;31.70;;
19691;SDS011;42748;50.016;19.890;2024-03-06T10:20:17;81.23;;;31.90;;
19691;SDS011;42748;50.016;19.890;2024-03-06T10:22:52;73.60;;;29.90;;
19691;SDS011;42748;50.016;19.890;2024-03-06T10:25:24;78.03;;;31.53;;
19691;SDS011;42748;50.016;19.890;2024-03-06T10:28:10;81.07;;;29.83;;
19691;SDS011;42748;50.016;19.890;2024-03-06T10:30:38;77.33;;;30.67;;
19691;SDS011;42748;50.016;19.890;2024-03-06T10:33:10;78.10;;;30.03;;
19691;SDS011;42748;50.016;19.890;2024-03-06T10:35:39;73.23;;;31.27;;
19691;SDS011;42748;50.016;19.890;2024-03-06T10:38:08;75.67;;;31.27;;
19691;SDS011;42748;50.016;19.890;2024-03-06T10:40:38;77.77;;;30.67;;
19691;SDS011;42748;50.016;19.890;2024-03-06T10:43:06;79.03;;;31.23;;
19691;SDS011;42748;50.016;19.890;2024-03-06T10:48:11;77.47;;;31.00;;
19691;SDS011;42748;50.016;19.890;2024-03-06T10:50:41;73.73;;;30.27;;
19691;SDS011;42748;50.016;19.890;2024-03-06T10:53:11;75.77;;;30.03;;
19691;SDS011;42748;50.016;19.890;2024-03-06T10:55:44;69.03;;;29.00;;
19691;SDS011;42748;50.016;19.890;2024-03-06T10:58:12;72.03;;;29.87;;
19691;SDS011;42748;50.016;19.890;2024-03-06T11:00:45;73.33;;;29.47;;
19691;SDS011;42748;50.016;19.890;2024-03-06T11:03:15;70.10;;;29.10;;
19691;SDS011;42748;50.016;19.890;2024-03-06T11:05:44;74.10;;;29.43;;
19691;SDS011;42748;50.016;19.890;2024-03-06T11:08:14;75.17;;;29.97;;
19691;SDS011;42748;50.016;19.890;2024-03-06T11:10:44;81.53;;;31.40;;
19691;SDS011;42748;50.016;19.890;2024-03-06T11:13:25;78.87;;;31.20;;
19691;SDS011;42748;50.016;19.890;2024-03-06T11:15:57;76.53;;;30.30;;
19691;SDS011;42748;50.016;19.890;2024-03-06T11:21:00;79.47;;;31.27;;
19691;SDS011;42748;50.016;19.890;2024-03-06T11:26:35;74.13;;;30.33;;
19691;SDS011;42748;50.016;19.890;2024-03-06T11:29:03;83.60;;;32.27;;
19691;SDS011;42748;50.016;19.890;2024-03-06T11:31:31;85.27;;;32.93;;
19691;SDS011;42748;50.016;19.890;2024-03-06T11:33:59;82.67;;;34.23;;
19691;SDS011;42748;50.016;19.890;2024-03-06T11:36:33;78.07;;;32.03;;
19691;SDS011;42748;50.016;19.890;2024-03-06T11:39:04;79.53;;;32.07;;
19691;SDS011;42748;50.016;19.890;2024-03-06T11:44:06;79.27;;;32.03;;
19691;SDS011;42748;50.016;19.890;2024-03-06T11:46:48;81.60;;;31.77;;
19691;SDS011;42748;50.016;19.890;2024-03-06T11:49:23;80.37;;;32.80;;
19691;SDS011;42748;50.016;19.890;2024-03-06T11:51:52;79.70;;;32.43;;
19691;SDS011;42748;50.016;19.890;2024-03-06T11:54:20;85.03;;;33.60;;
19691;SDS011;42748;50.016;19.890;2024-03-06T11:56:53;84.43;;;32.47;;
19691;SDS011;42748;50.016;19.890;2024-03-06T11:59:28;79.37;;;32.83;;
19691;SDS011;42748;50.016;19.890;2024-03-06T12:01:57;79.83;;;32.57;;
19691;SDS011;42748;50.016;19.890;2024-03-06T12:04:25;81.87;;;33.07;;
19691;SDS011;42748;50.016;19.890;2024-03-06T12:06:56;83.40;;;32.37;;
19691;SDS011;42748;50.016;19.890;2024-03-06T12:09:26;85.33;;;33.67;;
19691;SDS011;42748;50.016;19.890;2024-03-06T12:11:55;83.10;;;32.73;;
19691;SDS011;42748;50.016;19.890;2024-03-06T12:14:24;81.13;;;32.63;;
19691;SDS011;42748;50.016;19.890;2024-03-06T12:16:55;84.57;;;34.80;;
19691;SDS011;42748;50.016;19.890;2024-03-06T12:19:25;91.53;;;35.93;;
19691;SDS011;42748;50.016;19.890;2024-03-06T12:21:53;88.97;;;35.50;;
19691;SDS011;42748;50.016;19.890;2024-03-06T12:24:21;87.83;;;35.80;;
19691;SDS011;42748;50.016;19.890;2024-03-06T12:26:57;90.57;;;34.00;;
19691;SDS011;42748;50.016;19.890;2024-03-06T12:29:27;89.83;;;34.13;;
19691;SDS011;42748;50.016;19.890;2024-03-06T12:31:55;88.53;;;34.60;;
19691;SDS011;42748;50.016;19.890;2024-03-06T12:34:23;92.10;;;35.10;;
19691;SDS011;42748;50.016;19.890;2024-03-06T12:36:51;100.13;;;37.87;;
19691;SDS011;42748;50.016;19.890;2024-03-06T12:39:19;97.53;;;38.03;;
19691;SDS011;42748;50.016;19.890;2024-03-06T12:41:50;96.33;;;37.87;;
19691;SDS011;42748;50.016;19.890;2024-03-06T12:44:21;98.80;;;38.97;;
19691;SDS011;42748;50.016;19.890;2024-03-06T12:46:49;109.13;;;40.27;;
19691;SDS011;42748;50.016;19.890;2024-03-06T12:49:17;103.47;;;39.40;;
19691;SDS011;42748;50.016;19.890;2024-03-06T12:51:45;112.60;;;40.97;;
19691;SDS011;42748;50.016;19.890;2024-03-06T12:54:13;110.63;;;42.80;;
19691;SDS011;42748;50.016;19.890;2024-03-06T12:56:40;118.27;;;44.73;;
19691;SDS011;42748;50.016;19.890;2024-03-06T12:59:09;110.20;;;42.17;;
19691;SDS011;42748;50.016;19.890;2024-03-06T13:01:37;111.93;;;44.03;;
19691;SDS011;42748;50.016;19.890;2024-03-06T13:04:05;113.67;;;41.30;;
19691;SDS011;42748;50.016;19.890;2024-03-06T13:06:36;103.20;;;39.93;;
19691;SDS011;42748;50.016;19.890;2024-03-06T13:09:04;102.23;;;39.97;;
19691;SDS011;42748;50.016;19.890;2024-03-06T13:11:32;108.50;;;39.63;;
19691;SDS011;42748;50.016;19.890;2024-03-06T13:14:00;106.60;;;40.67;;
19691;SDS011;42748;50.016;19.890;2024-03-06T13:16:28;101.67;;;38.27;;
19691;SDS011;42748;50.016;19.890;2024-03-06T13:18:55;108.27;;;39.70;;
19691;SDS011;42748;50.016;19.890;2024-03-06T13:21:24;104.13;;;38.10;;
19691;SDS011;42748;50.016;19.890;2024-03-06T13:23:53;112.53;;;40.17;;
19691;SDS011;42748;50.016;19.890;2024-03-06T13:26:21;105.97;;;39.23;;
19691;SDS011;42748;50.016;19.890;2024-03-06T13:28:48;110.80;;;40.87;;
19691;SDS011;42748;50.016;19.890;2024-03-06T13:31:16;115.10;;;41.87;;
19691;SDS011;42748;50.016;19.890;2024-03-06T13:33:44;117.83;;;40.00;;
19691;SDS011;42748;50.016;19.890;2024-03-06T13:36:12;119.03;;;40.93;;
19691;SDS011;42748;50.016;19.890;2024-03-06T13:38:40;113.83;;;41.17;;
19691;SDS011;42748;50.016;19.890;2024-03-06T13:41:08;108.73;;;39.10;;
19691;SDS011;42748;50.016;19.890;2024-03-06T13:43:35;112.57;;;40.07;;
19691;SDS011;42748;50.016;19.890;2024-03-06T13:46:03;105.93;;;39.13;;
19691;SDS011;42748;50.016;19.890;2024-03-06T13:48:31;108.53;;;39.60;;
19691;SDS011;42748;50.016;19.890;2024-03-06T13:50:58;104.87;;;38.27;;
19691;SDS011;42748;50.016;19.890;2024-03-06T13:53:26;114.57;;;40.70;;
19691;SDS011;42748;50.016;19.890;2024-03-06T13:55:54;98.73;;;37.40;;
19691;SDS011;42748;50.016;19.890;2024-03-06T13:58:22;99.60;;;39.03;;
19691;SDS011;42748;50.016;19.890;2024-03-06T14:00:49;106.33;;;38.17;;
19691;SDS011;42748;50.016;19.890;2024-03-06T14:03:18;107.00;;;38.87;;
19691;SDS011;42748;50.016;19.890;2024-03-06T14:05:45;107.90;;;38.87;;
19691;SDS011;42748;50.016;19.890;2024-03-06T14:08:13;106.43;;;38.77;;
19691;SDS011;42748;50.016;19.890;2024-03-06T14:10:43;107.77;;;38.40;;
19691;SDS011;42748;50.016;19.890;2024-03-06T14:13:12;115.17;;;38.30;;
19691;SDS011;42748;50.016;19.890;2024-03-06T14:15:40;111.17;;;38.87;;
19691;SDS011;42748;50.016;19.890;2024-03-06T14:18:08;107.40;;;38.60;;
19691;SDS011;42748;50.016;19.890;2024-03-06T14:20:36;105.37;;;37.33;;
19691;SDS011;42748;50.016;19.890;2024-03-06T14:23:06;111.67;;;39.60;;
19691;SDS011;42748;50.016;19.890;2024-03-06T14:25:34;108.10;;;38.67;;
19691;SDS011;42748;50.016;19.890;2024-03-06T14:28:06;102.77;;;37.10;;